sensor_id;sensor_type;location;lat;lon;timestamp;P1;durP1;ratioP1;P2;durP2;ratioP2
42226;SDS011;27892;52.378;13.122;2024-01-30T00:01:57;5.80;;;4.60;;
42226;SDS011;27892;52.378;13.122;2024-01-30T00:04:23;8.23;;;5.83;;
42226;SDS011;27892;52.378;13.122;2024-01-30T00:06:50;8.40;;;6.43;;
42226;SDS011;27892;52.378;13.122;2024-01-30T00:09:16;7.13;;;5.43;;
42226;SDS011;27892;52.378;13.122;2024-01-30T00:11:41;6.93;;;5.20;;
42226;SDS011;27892;52.378;13.122;2024-01-30T00:14:07;6.80;;;5.37;;
42226;SDS011;27892;52.378;13.122;2024-01-30T00:16:33;7.07;;;4.97;;
42226;SDS011;27892;52.378;13.122;2024-01-30T00:18:59;5.47;;;4.40;;
42226;SDS011;27892;52.378;13.122;2024-01-30T00:21:27;5.97;;;4.40;;
42226;SDS011;27892;52.378;13.122;2024-01-30T00:23:53;6.10;;;4.50;;
42226;SDS011;27892;52.378;13.122;2024-01-30T00:26:18;6.27;;;4.57;;
42226;SDS011;27892;52.378;13.122;2024-01-30T00:28:44;7.17;;;5.40;;
42226;SDS011;27892;52.378;13.122;2024-01-30T00:31:10;6.63;;;5.20;;
42226;SDS011;27892;52.378;13.122;2024-01-30T00:33:39;5.77;;;4.43;;
42226;SDS011;27892;52.378;13.122;2024-01-30T00:36:06;5.67;;;4.33;;
42226;SDS011;27892;52.378;13.122;2024-01-30T00:38:33;4.00;;;3.60;;
42226;SDS011;27892;52.378;13.122;2024-01-30T00:40:58;5.10;;;3.83;;
42226;SDS011;27892;52.378;13.122;2024-01-30T00:43:24;6.30;;;4.30;;
42226;SDS011;27892;52.378;13.122;2024-01-30T00:45:50;7.67;;;4.80;;
42226;SDS011;27892;52.378;13.122;2024-01-30T00:48:19;6.70;;;5.17;;
42226;SDS011;27892;52.378;13.122;2024-01-30T00:50:45;9.53;;;5.53;;
42226;SDS011;27892;52.378;13.122;2024-01-30T00:53:11;7.50;;;5.53;;
42226;SDS011;27892;52.378;13.122;2024-01-30T00:55:37;7.23;;;5.63;;
42226;SDS011;27892;52.378;13.122;2024-01-30T00:58:03;8.73;;;5.87;;
42226;SDS011;27892;52.378;13.122;2024-01-30T01:00:28;9.20;;;6.77;;
42226;SDS011;27892;52.378;13.122;2024-01-30T01:02:55;7.53;;;5.67;;
42226;SDS011;27892;52.378;13.122;2024-01-30T01:05:20;8.43;;;5.60;;
42226;SDS011;27892;52.378;13.122;2024-01-30T01:07:46;9.13;;;6.43;;
42226;SDS011;27892;52.378;13.122;2024-01-30T01:10:15;6.43;;;4.90;;
42226;SDS011;27892;52.378;13.122;2024-01-30T01:12:44;6.53;;;4.27;;
42226;SDS011;27892;52.378;13.122;2024-01-30T01:15:10;6.23;;;4.40;;
42226;SDS011;27892;52.378;13.122;2024-01-30T01:17:36;6.77;;;4.80;;
42226;SDS011;27892;52.378;13.122;2024-01-30T01:20:05;6.07;;;4.80;;
42226;SDS011;27892;52.378;13.122;2024-01-30T01:22:33;4.80;;;4.30;;
42226;SDS011;27892;52.378;13.122;2024-01-30T01:24:59;7.67;;;4.93;;
42226;SDS011;27892;52.378;13.122;2024-01-30T01:27:25;7.97;;;5.50;;
42226;SDS011;27892;52.378;13.122;2024-01-30T01:29:51;7.10;;;5.50;;
42226;SDS011;27892;52.378;13.122;2024-01-30T01:32:17;6.83;;;5.27;;
42226;SDS011;27892;52.378;13.122;2024-01-30T01:34:43;7.83;;;5.60;;
42226;SDS011;27892;52.378;13.122;2024-01-30T01:37:09;6.77;;;5.03;;
42226;SDS011;27892;52.378;13.122;2024-01-30T01:39:34;7.60;;;4.77;;
42226;SDS011;27892;52.378;13.122;2024-01-30T01:42:00;7.17;;;5.37;;
42226;SDS011;27892;52.378;13.122;2024-01-30T01:44:26;7.10;;;5.37;;
42226;SDS011;27892;52.378;13.122;2024-01-30T01:46:52;9.07;;;5.90;;
42226;SDS011;27892;52.378;13.122;2024-01-30T01:49:19;7.77;;;5.40;;
42226;SDS011;27892;52.378;13.122;2024-01-30T01:51:46;6.23;;;4.20;;
42226;SDS011;27892;52.378;13.122;2024-01-30T01:54:13;5.07;;;4.10;;
42226;SDS011;27892;52.378;13.122;2024-01-30T01:56:41;7.77;;;4.47;;
42226;SDS011;27892;52.378;13.122;2024-01-30T01:59:08;5.87;;;4.60;;
42226;SDS011;27892;52.378;13.122;2024-01-30T02:01:34;5.33;;;4.10;;
42226;SDS011;27892;52.378;13.122;2024-01-30T02:04:02;4.83;;;4.33;;
42226;SDS011;27892;52.378;13.122;2024-01-30T02:06:27;5.40;;;4.40;;
42226;SDS011;27892;52.378;13.122;2024-01-30T02:08:54;7.97;;;4.63;;
42226;SDS011;27892;52.378;13.122;2024-01-30T02:11:20;7.40;;;4.87;;
42226;SDS011;27892;52.378;13.122;2024-01-30T02:13:47;4.83;;;3.87;;
42226;SDS011;27892;52.378;13.122;2024-01-30T02:16:13;5.10;;;3.90;;
42226;SDS011;27892;52.378;13.122;2024-01-30T02:18:38;4.50;;;3.90;;
42226;SDS011;27892;52.378;13.122;2024-01-30T02:21:08;6.30;;;4.57;;
42226;SDS011;27892;52.378;13.122;2024-01-30T02:23:34;5.13;;;3.87;;
42226;SDS011;27892;52.378;13.122;2024-01-30T02:26:00;4.90;;;3.50;;
42226;SDS011;27892;52.378;13.122;2024-01-30T02:28:26;5.03;;;4.00;;
42226;SDS011;27892;52.378;13.122;2024-01-30T02:30:52;3.73;;;3.40;;
42226;SDS011;27892;52.378;13.122;2024-01-30T02:33:18;3.80;;;3.23;;
42226;SDS011;27892;52.378;13.122;2024-01-30T02:35:44;4.00;;;3.60;;
42226;SDS011;27892;52.378;13.122;2024-01-30T02:38:10;3.83;;;3.43;;
42226;SDS011;27892;52.378;13.122;2024-01-30T02:40:35;3.83;;;3.27;;
42226;SDS011;27892;52.378;13.122;2024-01-30T02:43:02;3.80;;;3.40;;
42226;SDS011;27892;52.378;13.122;2024-01-30T02:45:28;3.80;;;3.13;;
42226;SDS011;27892;52.378;13.122;2024-01-30T02:47:53;3.93;;;3.17;;
42226;SDS011;27892;52.378;13.122;2024-01-30T02:50:19;3.40;;;3.10;;
42226;SDS011;27892;52.378;13.122;2024-01-30T02:52:45;4.00;;;3.60;;
42226;SDS011;27892;52.378;13.122;2024-01-30T02:55:10;4.53;;;3.60;;
42226;SDS011;27892;52.378;13.122;2024-01-30T02:57:37;5.13;;;3.90;;
42226;SDS011;27892;52.378;13.122;2024-01-30T03:00:05;4.90;;;3.70;;
42226;SDS011;27892;52.378;13.122;2024-01-30T03:02:34;4.17;;;3.60;;
42226;SDS011;27892;52.378;13.122;2024-01-30T03:05:00;3.53;;;3.17;;
42226;SDS011;27892;52.378;13.122;2024-01-30T03:07:25;3.93;;;3.57;;
42226;SDS011;27892;52.378;13.122;2024-01-30T03:09:51;3.80;;;3.40;;
42226;SDS011;27892;52.378;13.122;2024-01-30T03:12:17;3.60;;;3.30;;
42226;SDS011;27892;52.378;13.122;2024-01-30T03:14:43;4.43;;;3.20;;
42226;SDS011;27892;52.378;13.122;2024-01-30T03:17:08;4.27;;;3.63;;
42226;SDS011;27892;52.378;13.122;2024-01-30T03:19:34;5.73;;;4.60;;
42226;SDS011;27892;52.378;13.122;2024-01-30T03:22:00;5.67;;;4.83;;
42226;SDS011;27892;52.378;13.122;2024-01-30T03:24:25;8.30;;;6.13;;
42226;SDS011;27892;52.378;13.122;2024-01-30T03:26:51;7.00;;;4.63;;
42226;SDS011;27892;52.378;13.122;2024-01-30T03:29:17;5.83;;;4.70;;
42226;SDS011;27892;52.378;13.122;2024-01-30T03:31:42;7.87;;;5.50;;
42226;SDS011;27892;52.378;13.122;2024-01-30T03:34:08;5.83;;;4.20;;
42226;SDS011;27892;52.378;13.122;2024-01-30T03:36:34;5.33;;;3.80;;
42226;SDS011;27892;52.378;13.122;2024-01-30T03:38:59;6.30;;;4.60;;
42226;SDS011;27892;52.378;13.122;2024-01-30T03:41:26;5.87;;;4.87;;
42226;SDS011;27892;52.378;13.122;2024-01-30T03:43:52;8.43;;;5.47;;
42226;SDS011;27892;52.378;13.122;2024-01-30T03:46:17;8.83;;;6.00;;
42226;SDS011;27892;52.378;13.122;2024-01-30T03:48:43;8.30;;;6.07;;
42226;SDS011;27892;52.378;13.122;2024-01-30T03:51:10;8.03;;;5.70;;
42226;SDS011;27892;52.378;13.122;2024-01-30T03:53:41;8.43;;;5.87;;
42226;SDS011;27892;52.378;13.122;2024-01-30T03:56:07;8.10;;;5.73;;
42226;SDS011;27892;52.378;13.122;2024-01-30T03:58:33;6.47;;;5.30;;
42226;SDS011;27892;52.378;13.122;2024-01-30T04:00:59;5.97;;;4.20;;
42226;SDS011;27892;52.378;13.122;2024-01-30T04:03:24;6.23;;;4.40;;
42226;SDS011;27892;52.378;13.122;2024-01-30T04:05:51;4.57;;;4.10;;
42226;SDS011;27892;52.378;13.122;2024-01-30T04:08:17;5.57;;;4.40;;
42226;SDS011;27892;52.378;13.122;2024-01-30T04:10:43;5.70;;;4.77;;
42226;SDS011;27892;52.378;13.122;2024-01-30T04:13:08;7.17;;;4.80;;
42226;SDS011;27892;52.378;13.122;2024-01-30T04:15:34;5.30;;;4.40;;
42226;SDS011;27892;52.378;13.122;2024-01-30T04:18:00;5.50;;;3.93;;
42226;SDS011;27892;52.378;13.122;2024-01-30T04:20:26;4.10;;;3.50;;
42226;SDS011;27892;52.378;13.122;2024-01-30T04:22:51;3.90;;;3.50;;
42226;SDS011;27892;52.378;13.122;2024-01-30T04:25:17;3.80;;;3.40;;
42226;SDS011;27892;52.378;13.122;2024-01-30T04:27:43;5.00;;;3.97;;
42226;SDS011;27892;52.378;13.122;2024-01-30T04:30:09;4.43;;;3.50;;
42226;SDS011;27892;52.378;13.122;2024-01-30T04:32:35;4.13;;;3.70;;
42226;SDS011;27892;52.378;13.122;2024-01-30T04:35:01;6.13;;;4.13;;
42226;SDS011;27892;52.378;13.122;2024-01-30T04:37:27;4.43;;;3.80;;
42226;SDS011;27892;52.378;13.122;2024-01-30T04:39:53;5.37;;;4.10;;
42226;SDS011;27892;52.378;13.122;2024-01-30T04:42:19;6.57;;;4.27;;
42226;SDS011;27892;52.378;13.122;2024-01-30T04:44:44;6.53;;;4.87;;
42226;SDS011;27892;52.378;13.122;2024-01-30T04:47:10;5.90;;;4.50;;
42226;SDS011;27892;52.378;13.122;2024-01-30T04:49:38;5.50;;;4.57;;
42226;SDS011;27892;52.378;13.122;2024-01-30T04:52:05;5.77;;;4.80;;
42226;SDS011;27892;52.378;13.122;2024-01-30T04:54:31;5.47;;;4.23;;
42226;SDS011;27892;52.378;13.122;2024-01-30T04:56:57;4.77;;;3.83;;
42226;SDS011;27892;52.378;13.122;2024-01-30T04:59:23;6.73;;;4.57;;
42226;SDS011;27892;52.378;13.122;2024-01-30T05:01:49;5.47;;;4.33;;
42226;SDS011;27892;52.378;13.122;2024-01-30T05:04:15;4.23;;;3.83;;
42226;SDS011;27892;52.378;13.122;2024-01-30T05:06:41;5.50;;;4.03;;
42226;SDS011;27892;52.378;13.122;2024-01-30T05:09:06;5.73;;;4.00;;
42226;SDS011;27892;52.378;13.122;2024-01-30T05:11:39;5.03;;;4.17;;
42226;SDS011;27892;52.378;13.122;2024-01-30T05:14:05;4.47;;;3.67;;
42226;SDS011;27892;52.378;13.122;2024-01-30T05:16:32;5.17;;;3.80;;
42226;SDS011;27892;52.378;13.122;2024-01-30T05:18:58;4.20;;;3.20;;
42226;SDS011;27892;52.378;13.122;2024-01-30T05:21:24;4.30;;;3.90;;
42226;SDS011;27892;52.378;13.122;2024-01-30T05:23:50;6.67;;;5.33;;
42226;SDS011;27892;52.378;13.122;2024-01-30T05:26:15;9.90;;;6.40;;
42226;SDS011;27892;52.378;13.122;2024-01-30T05:28:41;9.40;;;6.00;;
42226;SDS011;27892;52.378;13.122;2024-01-30T05:31:09;9.90;;;6.30;;
42226;SDS011;27892;52.378;13.122;2024-01-30T05:33:35;6.53;;;5.10;;
42226;SDS011;27892;52.378;13.122;2024-01-30T05:36:01;7.57;;;6.00;;
42226;SDS011;27892;52.378;13.122;2024-01-30T05:38:27;7.10;;;5.60;;
42226;SDS011;27892;52.378;13.122;2024-01-30T05:40:55;7.87;;;5.57;;
42226;SDS011;27892;52.378;13.122;2024-01-30T05:43:22;6.67;;;4.90;;
42226;SDS011;27892;52.378;13.122;2024-01-30T05:45:48;6.33;;;5.03;;
42226;SDS011;27892;52.378;13.122;2024-01-30T05:48:14;6.27;;;5.00;;
42226;SDS011;27892;52.378;13.122;2024-01-30T05:50:40;8.67;;;5.33;;
42226;SDS011;27892;52.378;13.122;2024-01-30T05:53:05;9.83;;;6.63;;
42226;SDS011;27892;52.378;13.122;2024-01-30T05:55:31;8.03;;;6.03;;
42226;SDS011;27892;52.378;13.122;2024-01-30T05:57:56;7.90;;;5.63;;
42226;SDS011;27892;52.378;13.122;2024-01-30T06:00:22;10.03;;;7.30;;
42226;SDS011;27892;52.378;13.122;2024-01-30T06:02:48;11.90;;;7.57;;
42226;SDS011;27892;52.378;13.122;2024-01-30T06:05:13;10.20;;;7.30;;
42226;SDS011;27892;52.378;13.122;2024-01-30T06:07:39;10.07;;;7.00;;
42226;SDS011;27892;52.378;13.122;2024-01-30T06:10:05;10.77;;;7.20;;
42226;SDS011;27892;52.378;13.122;2024-01-30T06:12:32;11.80;;;8.33;;
42226;SDS011;27892;52.378;13.122;2024-01-30T06:14:57;10.53;;;7.50;;
42226;SDS011;27892;52.378;13.122;2024-01-30T06:17:23;11.43;;;7.87;;
42226;SDS011;27892;52.378;13.122;2024-01-30T06:19:49;13.33;;;8.37;;
42226;SDS011;27892;52.378;13.122;2024-01-30T06:22:15;12.47;;;8.03;;
42226;SDS011;27892;52.378;13.122;2024-01-30T06:24:41;12.17;;;7.47;;
42226;SDS011;27892;52.378;13.122;2024-01-30T06:27:07;13.73;;;8.00;;
42226;SDS011;27892;52.378;13.122;2024-01-30T06:29:32;10.70;;;7.10;;
42226;SDS011;27892;52.378;13.122;2024-01-30T06:31:58;12.33;;;7.50;;
42226;SDS011;27892;52.378;13.122;2024-01-30T06:34:24;10.60;;;6.90;;
42226;SDS011;27892;52.378;13.122;2024-01-30T06:36:51;12.10;;;7.50;;
42226;SDS011;27892;52.378;13.122;2024-01-30T06:39:17;10.10;;;7.40;;
42226;SDS011;27892;52.378;13.122;2024-01-30T06:41:43;10.60;;;7.70;;
42226;SDS011;27892;52.378;13.122;2024-01-30T06:44:08;11.17;;;8.33;;
42226;SDS011;27892;52.378;13.122;2024-01-30T06:46:34;13.20;;;8.23;;
42226;SDS011;27892;52.378;13.122;2024-01-30T06:49:00;14.00;;;8.27;;
42226;SDS011;27892;52.378;13.122;2024-01-30T06:51:26;11.67;;;7.63;;
42226;SDS011;27892;52.378;13.122;2024-01-30T06:53:52;12.83;;;7.80;;
42226;SDS011;27892;52.378;13.122;2024-01-30T06:56:17;11.23;;;8.23;;
42226;SDS011;27892;52.378;13.122;2024-01-30T06:58:49;12.83;;;7.77;;
42226;SDS011;27892;52.378;13.122;2024-01-30T07:01:15;13.73;;;7.87;;
42226;SDS011;27892;52.378;13.122;2024-01-30T07:03:42;9.23;;;7.00;;
42226;SDS011;27892;52.378;13.122;2024-01-30T07:06:08;8.30;;;6.47;;
42226;SDS011;27892;52.378;13.122;2024-01-30T07:08:35;12.67;;;7.43;;
42226;SDS011;27892;52.378;13.122;2024-01-30T07:11:02;9.40;;;5.83;;
42226;SDS011;27892;52.378;13.122;2024-01-30T07:13:28;40.03;;;23.00;;
42226;SDS011;27892;52.378;13.122;2024-01-30T07:15:54;32.47;;;19.93;;
42226;SDS011;27892;52.378;13.122;2024-01-30T07:18:19;27.33;;;14.07;;
42226;SDS011;27892;52.378;13.122;2024-01-30T07:20:45;18.07;;;10.30;;
42226;SDS011;27892;52.378;13.122;2024-01-30T07:23:12;19.27;;;12.13;;
42226;SDS011;27892;52.378;13.122;2024-01-30T07:25:41;27.07;;;15.87;;
42226;SDS011;27892;52.378;13.122;2024-01-30T07:28:07;20.70;;;12.97;;
42226;SDS011;27892;52.378;13.122;2024-01-30T07:30:35;14.27;;;9.40;;
42226;SDS011;27892;52.378;13.122;2024-01-30T07:33:00;12.70;;;7.87;;
42226;SDS011;27892;52.378;13.122;2024-01-30T07:35:26;12.43;;;8.33;;
42226;SDS011;27892;52.378;13.122;2024-01-30T07:37:51;10.43;;;7.57;;
42226;SDS011;27892;52.378;13.122;2024-01-30T07:40:17;11.33;;;7.90;;
42226;SDS011;27892;52.378;13.122;2024-01-30T07:42:43;10.90;;;8.10;;
42226;SDS011;27892;52.378;13.122;2024-01-30T07:45:09;9.67;;;7.60;;
42226;SDS011;27892;52.378;13.122;2024-01-30T07:47:34;13.97;;;9.10;;
42226;SDS011;27892;52.378;13.122;2024-01-30T07:50:00;16.23;;;8.53;;
42226;SDS011;27892;52.378;13.122;2024-01-30T07:52:26;27.50;;;13.00;;
42226;SDS011;27892;52.378;13.122;2024-01-30T07:54:52;25.47;;;13.23;;
42226;SDS011;27892;52.378;13.122;2024-01-30T07:57:17;20.93;;;10.97;;
42226;SDS011;27892;52.378;13.122;2024-01-30T07:59:43;19.47;;;9.33;;
42226;SDS011;27892;52.378;13.122;2024-01-30T08:02:10;17.00;;;10.10;;
42226;SDS011;27892;52.378;13.122;2024-01-30T08:04:36;16.70;;;9.07;;
42226;SDS011;27892;52.378;13.122;2024-01-30T08:07:02;13.87;;;8.77;;
42226;SDS011;27892;52.378;13.122;2024-01-30T08:09:28;16.57;;;8.53;;
42226;SDS011;27892;52.378;13.122;2024-01-30T08:11:53;14.77;;;8.43;;
42226;SDS011;27892;52.378;13.122;2024-01-30T08:14:19;17.00;;;9.17;;
42226;SDS011;27892;52.378;13.122;2024-01-30T08:16:45;12.03;;;7.83;;
42226;SDS011;27892;52.378;13.122;2024-01-30T08:19:10;12.27;;;9.03;;
42226;SDS011;27892;52.378;13.122;2024-01-30T08:21:36;14.50;;;8.77;;
42226;SDS011;27892;52.378;13.122;2024-01-30T08:24:05;14.40;;;8.87;;
42226;SDS011;27892;52.378;13.122;2024-01-30T08:26:31;13.13;;;8.77;;
42226;SDS011;27892;52.378;13.122;2024-01-30T08:28:58;13.27;;;7.97;;
42226;SDS011;27892;52.378;13.122;2024-01-30T08:31:23;14.97;;;8.50;;
42226;SDS011;27892;52.378;13.122;2024-01-30T08:33:49;15.07;;;9.47;;
42226;SDS011;27892;52.378;13.122;2024-01-30T08:36:15;14.80;;;8.73;;
42226;SDS011;27892;52.378;13.122;2024-01-30T08:38:41;11.57;;;8.17;;
42226;SDS011;27892;52.378;13.122;2024-01-30T08:41:07;12.70;;;7.97;;
42226;SDS011;27892;52.378;13.122;2024-01-30T08:43:33;11.77;;;7.67;;
42226;SDS011;27892;52.378;13.122;2024-01-30T08:45:59;16.00;;;8.30;;
42226;SDS011;27892;52.378;13.122;2024-01-30T08:48:25;12.13;;;8.40;;
42226;SDS011;27892;52.378;13.122;2024-01-30T08:50:51;13.50;;;8.67;;
42226;SDS011;27892;52.378;13.122;2024-01-30T08:53:17;13.33;;;8.60;;
42226;SDS011;27892;52.378;13.122;2024-01-30T08:55:43;13.10;;;9.13;;
42226;SDS011;27892;52.378;13.122;2024-01-30T08:58:09;14.40;;;8.73;;
42226;SDS011;27892;52.378;13.122;2024-01-30T09:00:35;14.07;;;8.33;;
42226;SDS011;27892;52.378;13.122;2024-01-30T09:03:01;13.03;;;7.90;;
42226;SDS011;27892;52.378;13.122;2024-01-30T09:05:26;12.30;;;7.77;;
42226;SDS011;27892;52.378;13.122;2024-01-30T09:07:52;11.93;;;7.57;;
42226;SDS011;27892;52.378;13.122;2024-01-30T09:10:17;11.20;;;7.70;;
42226;SDS011;27892;52.378;13.122;2024-01-30T09:12:43;10.70;;;7.50;;
42226;SDS011;27892;52.378;13.122;2024-01-30T09:15:09;12.03;;;7.57;;
42226;SDS011;27892;52.378;13.122;2024-01-30T09:17:35;7.63;;;6.23;;
42226;SDS011;27892;52.378;13.122;2024-01-30T09:20:01;11.13;;;7.17;;
42226;SDS011;27892;52.378;13.122;2024-01-30T09:22:26;11.77;;;8.00;;
42226;SDS011;27892;52.378;13.122;2024-01-30T09:24:52;10.70;;;6.87;;
42226;SDS011;27892;52.378;13.122;2024-01-30T09:27:18;11.47;;;7.90;;
42226;SDS011;27892;52.378;13.122;2024-01-30T09:29:43;11.93;;;7.43;;
42226;SDS011;27892;52.378;13.122;2024-01-30T09:32:09;13.10;;;7.43;;
42226;SDS011;27892;52.378;13.122;2024-01-30T09:34:35;11.27;;;7.90;;
42226;SDS011;27892;52.378;13.122;2024-01-30T09:37:00;50.40;;;29.93;;
42226;SDS011;27892;52.378;13.122;2024-01-30T09:39:26;19.50;;;12.43;;
42226;SDS011;27892;52.378;13.122;2024-01-30T09:41:57;12.13;;;8.00;;
42226;SDS011;27892;52.378;13.122;2024-01-30T09:44:31;10.97;;;7.63;;
42226;SDS011;27892;52.378;13.122;2024-01-30T09:46:59;9.40;;;7.30;;
42226;SDS011;27892;52.378;13.122;2024-01-30T09:49:29;10.17;;;6.80;;
42226;SDS011;27892;52.378;13.122;2024-01-30T09:51:57;10.90;;;7.50;;
42226;SDS011;27892;52.378;13.122;2024-01-30T09:54:23;9.80;;;7.17;;
42226;SDS011;27892;52.378;13.122;2024-01-30T09:56:48;9.03;;;6.30;;
42226;SDS011;27892;52.378;13.122;2024-01-30T09:59:14;10.53;;;7.17;;
42226;SDS011;27892;52.378;13.122;2024-01-30T10:01:40;9.27;;;7.20;;
42226;SDS011;27892;52.378;13.122;2024-01-30T10:04:07;11.33;;;7.40;;
42226;SDS011;27892;52.378;13.122;2024-01-30T10:06:33;8.80;;;6.80;;
42226;SDS011;27892;52.378;13.122;2024-01-30T10:08:59;9.00;;;6.57;;
42226;SDS011;27892;52.378;13.122;2024-01-30T10:11:25;11.60;;;7.80;;
42226;SDS011;27892;52.378;13.122;2024-01-30T10:13:51;11.77;;;7.93;;
42226;SDS011;27892;52.378;13.122;2024-01-30T10:16:16;9.23;;;6.83;;
42226;SDS011;27892;52.378;13.122;2024-01-30T10:18:42;9.80;;;7.03;;
42226;SDS011;27892;52.378;13.122;2024-01-30T10:21:08;9.90;;;6.87;;
42226;SDS011;27892;52.378;13.122;2024-01-30T10:23:35;11.17;;;7.33;;
42226;SDS011;27892;52.378;13.122;2024-01-30T10:26:02;12.10;;;7.53;;
42226;SDS011;27892;52.378;13.122;2024-01-30T10:28:29;8.63;;;6.27;;
42226;SDS011;27892;52.378;13.122;2024-01-30T10:30:59;11.27;;;7.40;;
42226;SDS011;27892;52.378;13.122;2024-01-30T10:33:25;10.60;;;7.30;;
42226;SDS011;27892;52.378;13.122;2024-01-30T10:35:53;9.00;;;6.43;;
42226;SDS011;27892;52.378;13.122;2024-01-30T10:38:23;10.30;;;6.90;;
42226;SDS011;27892;52.378;13.122;2024-01-30T10:40:50;9.50;;;6.03;;
42226;SDS011;27892;52.378;13.122;2024-01-30T10:43:21;11.27;;;7.20;;
42226;SDS011;27892;52.378;13.122;2024-01-30T10:45:48;8.57;;;6.40;;
42226;SDS011;27892;52.378;13.122;2024-01-30T10:48:18;8.23;;;5.83;;
42226;SDS011;27892;52.378;13.122;2024-01-30T10:50:47;8.67;;;6.67;;
42226;SDS011;27892;52.378;13.122;2024-01-30T10:53:15;8.10;;;5.67;;
42226;SDS011;27892;52.378;13.122;2024-01-30T10:55:42;8.13;;;6.13;;
42226;SDS011;27892;52.378;13.122;2024-01-30T10:58:10;11.40;;;7.40;;
42226;SDS011;27892;52.378;13.122;2024-01-30T11:00:36;9.50;;;6.80;;
42226;SDS011;27892;52.378;13.122;2024-01-30T11:03:04;8.97;;;6.50;;
42226;SDS011;27892;52.378;13.122;2024-01-30T11:05:30;7.87;;;5.97;;
42226;SDS011;27892;52.378;13.122;2024-01-30T11:07:55;11.73;;;7.83;;
42226;SDS011;27892;52.378;13.122;2024-01-30T11:10:21;9.20;;;7.30;;
42226;SDS011;27892;52.378;13.122;2024-01-30T11:12:50;12.87;;;7.87;;
42226;SDS011;27892;52.378;13.122;2024-01-30T11:15:16;11.27;;;7.50;;
42226;SDS011;27892;52.378;13.122;2024-01-30T11:18:00;11.47;;;7.90;;
42226;SDS011;27892;52.378;13.122;2024-01-30T11:20:29;11.30;;;7.90;;
42226;SDS011;27892;52.378;13.122;2024-01-30T11:23:01;13.20;;;7.17;;
42226;SDS011;27892;52.378;13.122;2024-01-30T11:25:31;11.87;;;8.13;;
42226;SDS011;27892;52.378;13.122;2024-01-30T11:27:57;15.00;;;8.70;;
42226;SDS011;27892;52.378;13.122;2024-01-30T11:30:23;12.83;;;8.73;;
42226;SDS011;27892;52.378;13.122;2024-01-30T11:33:04;10.80;;;7.63;;
42226;SDS011;27892;52.378;13.122;2024-01-30T11:35:32;12.03;;;7.93;;
42226;SDS011;27892;52.378;13.122;2024-01-30T11:38:02;14.00;;;8.80;;
42226;SDS011;27892;52.378;13.122;2024-01-30T11:40:29;9.47;;;7.50;;
42226;SDS011;27892;52.378;13.122;2024-01-30T11:42:56;12.23;;;8.33;;
42226;SDS011;27892;52.378;13.122;2024-01-30T11:45:23;12.60;;;8.33;;
42226;SDS011;27892;52.378;13.122;2024-01-30T11:47:48;11.90;;;7.93;;
42226;SDS011;27892;52.378;13.122;2024-01-30T11:50:14;13.90;;;8.33;;
42226;SDS011;27892;52.378;13.122;2024-01-30T11:52:40;12.57;;;8.30;;
42226;SDS011;27892;52.378;13.122;2024-01-30T11:55:07;9.27;;;6.60;;
42226;SDS011;27892;52.378;13.122;2024-01-30T11:57:33;7.90;;;6.43;;
42226;SDS011;27892;52.378;13.122;2024-01-30T12:00:00;7.27;;;5.30;;
42226;SDS011;27892;52.378;13.122;2024-01-30T12:02:28;5.53;;;4.90;;
42226;SDS011;27892;52.378;13.122;2024-01-30T12:04:54;9.77;;;7.07;;
42226;SDS011;27892;52.378;13.122;2024-01-30T12:07:20;10.10;;;7.07;;
42226;SDS011;27892;52.378;13.122;2024-01-30T12:09:52;9.40;;;6.90;;
42226;SDS011;27892;52.378;13.122;2024-01-30T12:12:19;11.70;;;7.40;;
42226;SDS011;27892;52.378;13.122;2024-01-30T12:14:50;14.43;;;8.93;;
42226;SDS011;27892;52.378;13.122;2024-01-30T12:17:37;10.97;;;7.90;;
42226;SDS011;27892;52.378;13.122;2024-01-30T12:20:03;14.10;;;8.60;;
42226;SDS011;27892;52.378;13.122;2024-01-30T12:22:36;8.77;;;6.57;;
42226;SDS011;27892;52.378;13.122;2024-01-30T12:25:07;11.23;;;6.93;;
42226;SDS011;27892;52.378;13.122;2024-01-30T12:27:34;9.40;;;6.83;;
42226;SDS011;27892;52.378;13.122;2024-01-30T12:30:00;7.43;;;6.17;;
42226;SDS011;27892;52.378;13.122;2024-01-30T12:32:25;9.47;;;6.60;;
42226;SDS011;27892;52.378;13.122;2024-01-30T12:34:55;10.17;;;7.03;;
42226;SDS011;27892;52.378;13.122;2024-01-30T12:37:22;10.37;;;7.23;;
42226;SDS011;27892;52.378;13.122;2024-01-30T12:39:49;8.40;;;6.70;;
42226;SDS011;27892;52.378;13.122;2024-01-30T12:42:21;11.20;;;6.63;;
42226;SDS011;27892;52.378;13.122;2024-01-30T12:44:47;8.90;;;6.43;;
42226;SDS011;27892;52.378;13.122;2024-01-30T12:47:14;10.17;;;5.90;;
42226;SDS011;27892;52.378;13.122;2024-01-30T12:49:42;8.87;;;5.70;;
42226;SDS011;27892;52.378;13.122;2024-01-30T12:52:11;8.33;;;5.57;;
42226;SDS011;27892;52.378;13.122;2024-01-30T12:54:38;6.83;;;5.30;;
42226;SDS011;27892;52.378;13.122;2024-01-30T12:57:04;8.57;;;5.60;;
42226;SDS011;27892;52.378;13.122;2024-01-30T12:59:30;7.53;;;5.50;;
42226;SDS011;27892;52.378;13.122;2024-01-30T13:01:56;9.03;;;5.60;;
42226;SDS011;27892;52.378;13.122;2024-01-30T13:04:22;8.93;;;6.03;;
42226;SDS011;27892;52.378;13.122;2024-01-30T13:06:48;8.03;;;5.50;;
42226;SDS011;27892;52.378;13.122;2024-01-30T13:09:14;6.73;;;4.80;;
42226;SDS011;27892;52.378;13.122;2024-01-30T13:11:41;7.53;;;5.40;;
42226;SDS011;27892;52.378;13.122;2024-01-30T13:14:06;9.03;;;5.77;;
42226;SDS011;27892;52.378;13.122;2024-01-30T13:16:32;5.83;;;5.00;;
42226;SDS011;27892;52.378;13.122;2024-01-30T13:18:58;5.80;;;4.47;;
42226;SDS011;27892;52.378;13.122;2024-01-30T13:21:23;7.73;;;5.30;;
42226;SDS011;27892;52.378;13.122;2024-01-30T13:23:49;6.00;;;5.00;;
42226;SDS011;27892;52.378;13.122;2024-01-30T13:26:18;6.07;;;4.50;;
42226;SDS011;27892;52.378;13.122;2024-01-30T13:28:44;7.40;;;4.93;;
42226;SDS011;27892;52.378;13.122;2024-01-30T13:31:09;6.97;;;4.63;;
42226;SDS011;27892;52.378;13.122;2024-01-30T13:33:35;7.07;;;4.90;;
42226;SDS011;27892;52.378;13.122;2024-01-30T13:36:01;6.80;;;5.17;;
42226;SDS011;27892;52.378;13.122;2024-01-30T13:38:27;6.10;;;4.73;;
42226;SDS011;27892;52.378;13.122;2024-01-30T13:40:52;5.03;;;4.27;;
42226;SDS011;27892;52.378;13.122;2024-01-30T13:43:18;6.33;;;4.80;;
42226;SDS011;27892;52.378;13.122;2024-01-30T13:45:44;6.40;;;4.97;;
42226;SDS011;27892;52.378;13.122;2024-01-30T13:48:10;7.10;;;4.87;;
42226;SDS011;27892;52.378;13.122;2024-01-30T13:50:37;4.87;;;4.00;;
42226;SDS011;27892;52.378;13.122;2024-01-30T13:53:02;8.37;;;5.63;;
42226;SDS011;27892;52.378;13.122;2024-01-30T13:55:29;6.87;;;4.87;;
42226;SDS011;27892;52.378;13.122;2024-01-30T13:57:55;5.27;;;4.23;;
42226;SDS011;27892;52.378;13.122;2024-01-30T14:00:21;4.00;;;3.57;;
42226;SDS011;27892;52.378;13.122;2024-01-30T14:02:48;6.30;;;3.97;;
42226;SDS011;27892;52.378;13.122;2024-01-30T14:05:13;6.20;;;4.50;;
42226;SDS011;27892;52.378;13.122;2024-01-30T14:07:40;6.70;;;4.83;;
42226;SDS011;27892;52.378;13.122;2024-01-30T14:10:09;6.37;;;4.93;;
42226;SDS011;27892;52.378;13.122;2024-01-30T14:12:36;5.80;;;4.30;;
42226;SDS011;27892;52.378;13.122;2024-01-30T14:15:02;11.47;;;8.67;;
42226;SDS011;27892;52.378;13.122;2024-01-30T14:17:27;12.80;;;8.00;;
42226;SDS011;27892;52.378;13.122;2024-01-30T14:19:53;7.67;;;5.70;;
42226;SDS011;27892;52.378;13.122;2024-01-30T14:22:18;5.87;;;4.80;;
42226;SDS011;27892;52.378;13.122;2024-01-30T14:24:44;5.13;;;4.60;;